sensor_id;sensor_type;location;lat;lon;timestamp;P1;durP1;ratioP1;P2;durP2;ratioP2
6539;SDS011;50344;51.142;16.892;2023-12-07T00:01:05;18.57;;;16.87;;
6539;SDS011;50344;51.142;16.892;2023-12-07T00:03:31;18.30;;;16.60;;
6539;SDS011;50344;51.142;16.892;2023-12-07T00:05:57;20.07;;;18.17;;
6539;SDS011;50344;51.142;16.892;2023-12-07T00:08:22;20.53;;;18.50;;
6539;SDS011;50344;51.142;16.892;2023-12-07T00:10:48;19.90;;;17.90;;
6539;SDS011;50344;51.142;16.892;2023-12-07T00:13:14;19.20;;;17.40;;
6539;SDS011;50344;51.142;16.892;2023-12-07T00:15:39;20.30;;;18.30;;
6539;SDS011;50344;51.142;16.892;2023-12-07T00:18:05;30.53;;;18.60;;
6539;SDS011;50344;51.142;16.892;2023-12-07T00:20:31;19.57;;;17.63;;
6539;SDS011;50344;51.142;16.892;2023-12-07T00:22:56;18.93;;;17.10;;
6539;SDS011;50344;51.142;16.892;2023-12-07T00:25:22;20.70;;;18.70;;
6539;SDS011;50344;51.142;16.892;2023-12-07T00:27:48;20.33;;;18.30;;
6539;SDS011;50344;51.142;16.892;2023-12-07T00:30:14;19.73;;;17.80;;
6539;SDS011;50344;51.142;16.892;2023-12-07T00:32:40;19.40;;;17.47;;
6539;SDS011;50344;51.142;16.892;2023-12-07T00:35:12;18.63;;;16.83;;
6539;SDS011;50344;51.142;16.892;2023-12-07T00:37:37;20.00;;;17.80;;
6539;SDS011;50344;51.142;16.892;2023-12-07T00:40:03;18.73;;;17.03;;
6539;SDS011;50344;51.142;16.892;2023-12-07T00:42:30;20.20;;;18.20;;
6539;SDS011;50344;51.142;16.892;2023-12-07T00:44:55;20.47;;;18.37;;
6539;SDS011;50344;51.142;16.892;2023-12-07T00:47:21;18.33;;;16.50;;
6539;SDS011;50344;51.142;16.892;2023-12-07T00:49:47;19.60;;;17.60;;
6539;SDS011;50344;51.142;16.892;2023-12-07T00:52:13;18.10;;;16.40;;
6539;SDS011;50344;51.142;16.892;2023-12-07T00:54:39;20.43;;;18.33;;
6539;SDS011;50344;51.142;16.892;2023-12-07T00:57:05;20.00;;;17.90;;
6539;SDS011;50344;51.142;16.892;2023-12-07T00:59:31;18.93;;;17.13;;
6539;SDS011;50344;51.142;16.892;2023-12-07T01:02:01;18.70;;;17.00;;
6539;SDS011;50344;51.142;16.892;2023-12-07T01:04:28;17.37;;;15.60;;
6539;SDS011;50344;51.142;16.892;2023-12-07T01:06:54;21.20;;;19.00;;
6539;SDS011;50344;51.142;16.892;2023-12-07T01:09:20;18.33;;;16.70;;
6539;SDS011;50344;51.142;16.892;2023-12-07T01:11:47;19.20;;;17.33;;
6539;SDS011;50344;51.142;16.892;2023-12-07T01:14:12;17.67;;;16.07;;
6539;SDS011;50344;51.142;16.892;2023-12-07T01:16:38;19.17;;;17.27;;
6539;SDS011;50344;51.142;16.892;2023-12-07T01:19:04;19.27;;;17.37;;
6539;SDS011;50344;51.142;16.892;2023-12-07T01:21:29;19.20;;;17.27;;
6539;SDS011;50344;51.142;16.892;2023-12-07T01:23:56;17.70;;;15.90;;
6539;SDS011;50344;51.142;16.892;2023-12-07T01:26:23;19.53;;;17.60;;
6539;SDS011;50344;51.142;16.892;2023-12-07T01:28:49;19.03;;;17.33;;
6539;SDS011;50344;51.142;16.892;2023-12-07T01:31:14;19.80;;;17.90;;
6539;SDS011;50344;51.142;16.892;2023-12-07T01:33:40;18.60;;;16.70;;
6539;SDS011;50344;51.142;16.892;2023-12-07T01:36:06;18.53;;;16.73;;
6539;SDS011;50344;51.142;16.892;2023-12-07T01:38:31;18.97;;;17.17;;
6539;SDS011;50344;51.142;16.892;2023-12-07T01:40:57;19.20;;;17.30;;
6539;SDS011;50344;51.142;16.892;2023-12-07T01:43:23;20.20;;;18.13;;
6539;SDS011;50344;51.142;16.892;2023-12-07T01:45:49;19.90;;;18.10;;
6539;SDS011;50344;51.142;16.892;2023-12-07T01:48:18;18.40;;;16.60;;
6539;SDS011;50344;51.142;16.892;2023-12-07T01:50:45;18.90;;;17.07;;
6539;SDS011;50344;51.142;16.892;2023-12-07T01:53:11;20.00;;;18.10;;
6539;SDS011;50344;51.142;16.892;2023-12-07T01:55:38;18.23;;;16.47;;
6539;SDS011;50344;51.142;16.892;2023-12-07T01:58:05;18.00;;;16.30;;
6539;SDS011;50344;51.142;16.892;2023-12-07T02:00:32;19.67;;;17.87;;
6539;SDS011;50344;51.142;16.892;2023-12-07T02:02:59;17.50;;;15.87;;
6539;SDS011;50344;51.142;16.892;2023-12-07T02:05:26;19.27;;;17.27;;
6539;SDS011;50344;51.142;16.892;2023-12-07T02:07:52;19.90;;;18.00;;
6539;SDS011;50344;51.142;16.892;2023-12-07T02:10:18;18.10;;;16.37;;
6539;SDS011;50344;51.142;16.892;2023-12-07T02:12:44;17.83;;;16.10;;
6539;SDS011;50344;51.142;16.892;2023-12-07T02:15:11;19.83;;;17.93;;
6539;SDS011;50344;51.142;16.892;2023-12-07T02:20:37;17.93;;;16.33;;
6539;SDS011;50344;51.142;16.892;2023-12-07T02:23:10;18.43;;;16.63;;
6539;SDS011;50344;51.142;16.892;2023-12-07T02:25:48;18.90;;;17.10;;
6539;SDS011;50344;51.142;16.892;2023-12-07T02:28:16;19.20;;;17.40;;
6539;SDS011;50344;51.142;16.892;2023-12-07T02:30:42;18.70;;;16.80;;
6539;SDS011;50344;51.142;16.892;2023-12-07T02:33:09;18.63;;;16.83;;
6539;SDS011;50344;51.142;16.892;2023-12-07T02:35:36;18.10;;;16.30;;
6539;SDS011;50344;51.142;16.892;2023-12-07T02:38:02;19.20;;;17.40;;
6539;SDS011;50344;51.142;16.892;2023-12-07T02:40:28;18.60;;;16.80;;
6539;SDS011;50344;51.142;16.892;2023-12-07T02:42:55;18.13;;;16.33;;
6539;SDS011;50344;51.142;16.892;2023-12-07T02:45:22;17.30;;;15.70;;
6539;SDS011;50344;51.142;16.892;2023-12-07T02:47:48;18.57;;;16.90;;
6539;SDS011;50344;51.142;16.892;2023-12-07T02:50:14;18.63;;;16.83;;
6539;SDS011;50344;51.142;16.892;2023-12-07T02:52:39;18.53;;;16.70;;
6539;SDS011;50344;51.142;16.892;2023-12-07T02:55:05;19.17;;;17.27;;
6539;SDS011;50344;51.142;16.892;2023-12-07T02:57:32;17.70;;;16.00;;
6539;SDS011;50344;51.142;16.892;2023-12-07T03:00:01;17.53;;;15.93;;
6539;SDS011;50344;51.142;16.892;2023-12-07T03:02:32;17.90;;;16.30;;
6539;SDS011;50344;51.142;16.892;2023-12-07T03:05:02;17.50;;;15.73;;
6539;SDS011;50344;51.142;16.892;2023-12-07T03:07:28;17.93;;;16.23;;
6539;SDS011;50344;51.142;16.892;2023-12-07T03:09:54;17.73;;;15.90;;
6539;SDS011;50344;51.142;16.892;2023-12-07T03:12:19;17.50;;;15.90;;
6539;SDS011;50344;51.142;16.892;2023-12-07T03:14:45;17.20;;;15.40;;
6539;SDS011;50344;51.142;16.892;2023-12-07T03:17:10;16.77;;;15.27;;
6539;SDS011;50344;51.142;16.892;2023-12-07T03:19:39;16.53;;;14.93;;
6539;SDS011;50344;51.142;16.892;2023-12-07T03:22:06;17.10;;;15.57;;
6539;SDS011;50344;51.142;16.892;2023-12-07T03:24:32;16.37;;;14.83;;
6539;SDS011;50344;51.142;16.892;2023-12-07T03:26:59;17.70;;;16.10;;
6539;SDS011;50344;51.142;16.892;2023-12-07T03:29:25;17.47;;;15.67;;
6539;SDS011;50344;51.142;16.892;2023-12-07T03:31:51;16.73;;;15.13;;
6539;SDS011;50344;51.142;16.892;2023-12-07T03:34:17;18.93;;;17.20;;
6539;SDS011;50344;51.142;16.892;2023-12-07T03:36:45;17.17;;;15.50;;
6539;SDS011;50344;51.142;16.892;2023-12-07T03:39:11;18.57;;;16.77;;
6539;SDS011;50344;51.142;16.892;2023-12-07T03:41:38;17.63;;;16.07;;
6539;SDS011;50344;51.142;16.892;2023-12-07T03:44:03;16.33;;;14.90;;
6539;SDS011;50344;51.142;16.892;2023-12-07T03:46:29;16.13;;;14.63;;
6539;SDS011;50344;51.142;16.892;2023-12-07T03:48:55;17.27;;;15.60;;
6539;SDS011;50344;51.142;16.892;2023-12-07T03:51:20;18.53;;;16.60;;
6539;SDS011;50344;51.142;16.892;2023-12-07T03:53:46;17.30;;;15.60;;
6539;SDS011;50344;51.142;16.892;2023-12-07T03:56:22;16.93;;;15.37;;
6539;SDS011;50344;51.142;16.892;2023-12-07T03:58:48;15.73;;;14.23;;
6539;SDS011;50344;51.142;16.892;2023-12-07T04:01:14;17.10;;;15.50;;
6539;SDS011;50344;51.142;16.892;2023-12-07T04:03:39;16.90;;;15.23;;
6539;SDS011;50344;51.142;16.892;2023-12-07T04:06:05;17.27;;;15.67;;
6539;SDS011;50344;51.142;16.892;2023-12-07T04:08:31;18.27;;;16.43;;
6539;SDS011;50344;51.142;16.892;2023-12-07T04:10:56;16.37;;;14.77;;
6539;SDS011;50344;51.142;16.892;2023-12-07T04:13:22;17.80;;;16.20;;
6539;SDS011;50344;51.142;16.892;2023-12-07T04:15:48;18.27;;;16.47;;
6539;SDS011;50344;51.142;16.892;2023-12-07T04:18:13;17.67;;;15.97;;
6539;SDS011;50344;51.142;16.892;2023-12-07T04:20:39;17.93;;;16.13;;
6539;SDS011;50344;51.142;16.892;2023-12-07T04:23:04;17.50;;;15.80;;
6539;SDS011;50344;51.142;16.892;2023-12-07T04:25:30;17.17;;;15.57;;
6539;SDS011;50344;51.142;16.892;2023-12-07T04:27:56;18.50;;;16.73;;
6539;SDS011;50344;51.142;16.892;2023-12-07T04:30:21;17.00;;;15.40;;
6539;SDS011;50344;51.142;16.892;2023-12-07T04:32:47;16.50;;;15.00;;
6539;SDS011;50344;51.142;16.892;2023-12-07T04:35:12;16.50;;;15.00;;
6539;SDS011;50344;51.142;16.892;2023-12-07T04:37:38;16.47;;;14.93;;
6539;SDS011;50344;51.142;16.892;2023-12-07T04:40:04;17.10;;;15.53;;
6539;SDS011;50344;51.142;16.892;2023-12-07T04:42:30;16.00;;;14.50;;
6539;SDS011;50344;51.142;16.892;2023-12-07T04:44:56;16.93;;;15.13;;
6539;SDS011;50344;51.142;16.892;2023-12-07T04:47:21;16.30;;;14.80;;
6539;SDS011;50344;51.142;16.892;2023-12-07T04:49:48;16.03;;;14.60;;
6539;SDS011;50344;51.142;16.892;2023-12-07T04:52:14;16.17;;;14.67;;
6539;SDS011;50344;51.142;16.892;2023-12-07T04:54:40;16.50;;;15.00;;
6539;SDS011;50344;51.142;16.892;2023-12-07T04:57:06;16.10;;;14.50;;
6539;SDS011;50344;51.142;16.892;2023-12-07T04:59:32;17.43;;;15.73;;
6539;SDS011;50344;51.142;16.892;2023-12-07T05:01:58;17.03;;;15.33;;
6539;SDS011;50344;51.142;16.892;2023-12-07T05:04:23;14.93;;;13.43;;
6539;SDS011;50344;51.142;16.892;2023-12-07T05:06:49;16.17;;;14.70;;
6539;SDS011;50344;51.142;16.892;2023-12-07T05:09:14;17.57;;;14.97;;
6539;SDS011;50344;51.142;16.892;2023-12-07T05:11:40;16.40;;;14.80;;
6539;SDS011;50344;51.142;16.892;2023-12-07T05:14:06;16.67;;;14.97;;
6539;SDS011;50344;51.142;16.892;2023-12-07T05:16:32;17.17;;;15.50;;
6539;SDS011;50344;51.142;16.892;2023-12-07T05:18:58;15.77;;;14.23;;
6539;SDS011;50344;51.142;16.892;2023-12-07T05:21:23;16.50;;;14.83;;
6539;SDS011;50344;51.142;16.892;2023-12-07T05:23:49;15.70;;;14.20;;
6539;SDS011;50344;51.142;16.892;2023-12-07T05:26:15;17.33;;;15.63;;
6539;SDS011;50344;51.142;16.892;2023-12-07T05:28:41;16.93;;;15.23;;
6539;SDS011;50344;51.142;16.892;2023-12-07T05:31:06;16.30;;;14.60;;
6539;SDS011;50344;51.142;16.892;2023-12-07T05:33:32;15.77;;;14.17;;
6539;SDS011;50344;51.142;16.892;2023-12-07T05:35:58;15.67;;;14.27;;
6539;SDS011;50344;51.142;16.892;2023-12-07T05:38:25;17.00;;;15.30;;
6539;SDS011;50344;51.142;16.892;2023-12-07T05:40:51;16.77;;;14.97;;
6539;SDS011;50344;51.142;16.892;2023-12-07T05:43:16;15.70;;;14.20;;
6539;SDS011;50344;51.142;16.892;2023-12-07T05:45:42;16.47;;;14.90;;
6539;SDS011;50344;51.142;16.892;2023-12-07T05:48:08;16.90;;;15.07;;
6539;SDS011;50344;51.142;16.892;2023-12-07T05:50:33;15.90;;;14.40;;
6539;SDS011;50344;51.142;16.892;2023-12-07T05:52:59;16.50;;;14.90;;
6539;SDS011;50344;51.142;16.892;2023-12-07T05:55:24;15.90;;;14.23;;
6539;SDS011;50344;51.142;16.892;2023-12-07T05:57:50;16.77;;;15.17;;
6539;SDS011;50344;51.142;16.892;2023-12-07T06:00:16;15.97;;;14.37;;
6539;SDS011;50344;51.142;16.892;2023-12-07T06:02:44;16.20;;;14.50;;
6539;SDS011;50344;51.142;16.892;2023-12-07T06:05:09;15.93;;;14.43;;
6539;SDS011;50344;51.142;16.892;2023-12-07T06:07:36;15.60;;;14.20;;
6539;SDS011;50344;51.142;16.892;2023-12-07T06:10:01;17.40;;;14.33;;
6539;SDS011;50344;51.142;16.892;2023-12-07T06:12:27;16.30;;;14.77;;
6539;SDS011;50344;51.142;16.892;2023-12-07T06:14:52;17.07;;;14.47;;
6539;SDS011;50344;51.142;16.892;2023-12-07T06:17:19;16.40;;;14.80;;
6539;SDS011;50344;51.142;16.892;2023-12-07T06:19:46;24.97;;;15.70;;
6539;SDS011;50344;51.142;16.892;2023-12-07T06:22:11;17.20;;;14.57;;
6539;SDS011;50344;51.142;16.892;2023-12-07T06:24:38;17.00;;;15.13;;
6539;SDS011;50344;51.142;16.892;2023-12-07T06:27:04;16.50;;;14.40;;
6539;SDS011;50344;51.142;16.892;2023-12-07T06:29:30;22.30;;;15.37;;
6539;SDS011;50344;51.142;16.892;2023-12-07T06:31:55;17.27;;;15.57;;
6539;SDS011;50344;51.142;16.892;2023-12-07T06:34:21;16.57;;;14.77;;
6539;SDS011;50344;51.142;16.892;2023-12-07T06:36:47;16.20;;;14.53;;
6539;SDS011;50344;51.142;16.892;2023-12-07T06:39:13;17.40;;;15.03;;
6539;SDS011;50344;51.142;16.892;2023-12-07T06:41:39;18.40;;;16.60;;
6539;SDS011;50344;51.142;16.892;2023-12-07T06:44:06;17.23;;;14.80;;
6539;SDS011;50344;51.142;16.892;2023-12-07T06:46:32;16.00;;;14.40;;
6539;SDS011;50344;51.142;16.892;2023-12-07T06:48:57;17.17;;;15.47;;
6539;SDS011;50344;51.142;16.892;2023-12-07T06:51:23;16.40;;;14.80;;
6539;SDS011;50344;51.142;16.892;2023-12-07T06:53:49;16.20;;;14.40;;
6539;SDS011;50344;51.142;16.892;2023-12-07T06:56:14;16.63;;;14.73;;
6539;SDS011;50344;51.142;16.892;2023-12-07T06:58:40;17.30;;;15.33;;
6539;SDS011;50344;51.142;16.892;2023-12-07T07:01:06;17.13;;;15.33;;
6539;SDS011;50344;51.142;16.892;2023-12-07T07:03:31;17.17;;;15.47;;
6539;SDS011;50344;51.142;16.892;2023-12-07T07:05:57;19.40;;;17.17;;
6539;SDS011;50344;51.142;16.892;2023-12-07T07:08:24;18.17;;;16.20;;
6539;SDS011;50344;51.142;16.892;2023-12-07T07:10:50;18.63;;;16.67;;
6539;SDS011;50344;51.142;16.892;2023-12-07T07:13:16;18.10;;;16.13;;
6539;SDS011;50344;51.142;16.892;2023-12-07T07:15:42;19.03;;;17.20;;
6539;SDS011;50344;51.142;16.892;2023-12-07T07:18:08;17.57;;;15.87;;
6539;SDS011;50344;51.142;16.892;2023-12-07T07:20:34;19.00;;;17.00;;
6539;SDS011;50344;51.142;16.892;2023-12-07T07:23:00;18.87;;;15.47;;
6539;SDS011;50344;51.142;16.892;2023-12-07T07:25:26;18.57;;;16.77;;
6539;SDS011;50344;51.142;16.892;2023-12-07T07:27:52;17.63;;;15.80;;
6539;SDS011;50344;51.142;16.892;2023-12-07T07:30:19;18.40;;;16.20;;
6539;SDS011;50344;51.142;16.892;2023-12-07T07:32:45;18.80;;;16.63;;
6539;SDS011;50344;51.142;16.892;2023-12-07T07:35:11;18.23;;;16.50;;
6539;SDS011;50344;51.142;16.892;2023-12-07T07:37:37;17.80;;;16.00;;
6539;SDS011;50344;51.142;16.892;2023-12-07T07:40:07;18.37;;;16.47;;
6539;SDS011;50344;51.142;16.892;2023-12-07T07:42:36;17.50;;;15.80;;
6539;SDS011;50344;51.142;16.892;2023-12-07T07:45:05;17.93;;;16.13;;
6539;SDS011;50344;51.142;16.892;2023-12-07T07:47:34;19.13;;;17.13;;
6539;SDS011;50344;51.142;16.892;2023-12-07T07:50:00;17.50;;;15.80;;
6539;SDS011;50344;51.142;16.892;2023-12-07T07:52:30;17.93;;;16.03;;
6539;SDS011;50344;51.142;16.892;2023-12-07T07:55:00;17.10;;;15.37;;
6539;SDS011;50344;51.142;16.892;2023-12-07T07:57:27;19.23;;;17.23;;
6539;SDS011;50344;51.142;16.892;2023-12-07T07:59:53;18.63;;;16.63;;
6539;SDS011;50344;51.142;16.892;2023-12-07T08:02:20;17.97;;;16.27;;
6539;SDS011;50344;51.142;16.892;2023-12-07T08:04:46;17.97;;;16.17;;
6539;SDS011;50344;51.142;16.892;2023-12-07T08:07:12;17.80;;;16.00;;
6539;SDS011;50344;51.142;16.892;2023-12-07T08:09:38;17.07;;;15.37;;
6539;SDS011;50344;51.142;16.892;2023-12-07T08:12:04;18.57;;;16.67;;
6539;SDS011;50344;51.142;16.892;2023-12-07T08:14:31;18.10;;;16.20;;
6539;SDS011;50344;51.142;16.892;2023-12-07T08:16:57;18.13;;;16.43;;
6539;SDS011;50344;51.142;16.892;2023-12-07T08:19:23;18.73;;;16.73;;
6539;SDS011;50344;51.142;16.892;2023-12-07T08:21:50;17.93;;;16.13;;
6539;SDS011;50344;51.142;16.892;2023-12-07T08:24:16;17.70;;;15.90;;
6539;SDS011;50344;51.142;16.892;2023-12-07T08:26:41;17.60;;;15.90;;
6539;SDS011;50344;51.142;16.892;2023-12-07T08:29:07;17.37;;;15.63;;
6539;SDS011;50344;51.142;16.892;2023-12-07T08:31:33;17.60;;;15.80;;
6539;SDS011;50344;51.142;16.892;2023-12-07T08:33:58;17.50;;;15.80;;
6539;SDS011;50344;51.142;16.892;2023-12-07T08:36:25;17.83;;;15.93;;
6539;SDS011;50344;51.142;16.892;2023-12-07T08:38:51;17.70;;;16.00;;
6539;SDS011;50344;51.142;16.892;2023-12-07T08:41:17;17.23;;;15.53;;
6539;SDS011;50344;51.142;16.892;2023-12-07T08:43:43;16.87;;;15.27;;
6539;SDS011;50344;51.142;16.892;2023-12-07T08:46:09;19.00;;;17.10;;
6539;SDS011;50344;51.142;16.892;2023-12-07T08:48:35;18.20;;;16.40;;
6539;SDS011;50344;51.142;16.892;2023-12-07T08:51:02;17.70;;;15.90;;
6539;SDS011;50344;51.142;16.892;2023-12-07T08:53:28;16.97;;;15.23;;
6539;SDS011;50344;51.142;16.892;2023-12-07T08:55:54;18.43;;;16.63;;
6539;SDS011;50344;51.142;16.892;2023-12-07T08:58:20;18.37;;;16.57;;
6539;SDS011;50344;51.142;16.892;2023-12-07T09:00:46;17.37;;;15.77;;
6539;SDS011;50344;51.142;16.892;2023-12-07T09:03:12;18.33;;;16.43;;
6539;SDS011;50344;51.142;16.892;2023-12-07T09:05:38;18.17;;;16.30;;
6539;SDS011;50344;51.142;16.892;2023-12-07T09:08:04;17.40;;;15.77;;
6539;SDS011;50344;51.142;16.892;2023-12-07T09:10:30;18.57;;;16.80;;
6539;SDS011;50344;51.142;16.892;2023-12-07T09:12:55;18.90;;;17.00;;
6539;SDS011;50344;51.142;16.892;2023-12-07T09:15:21;19.13;;;17.13;;
6539;SDS011;50344;51.142;16.892;2023-12-07T09:17:47;18.27;;;16.40;;
6539;SDS011;50344;51.142;16.892;2023-12-07T09:20:15;18.90;;;17.10;;
6539;SDS011;50344;51.142;16.892;2023-12-07T09:22:44;19.00;;;17.07;;
6539;SDS011;50344;51.142;16.892;2023-12-07T09:25:11;18.67;;;16.80;;
6539;SDS011;50344;51.142;16.892;2023-12-07T09:27:38;19.13;;;17.13;;
6539;SDS011;50344;51.142;16.892;2023-12-07T09:30:07;56.57;;;32.30;;
6539;SDS011;50344;51.142;16.892;2023-12-07T09:32:39;95.93;;;51.40;;
6539;SDS011;50344;51.142;16.892;2023-12-07T09:35:05;97.50;;;52.93;;
6539;SDS011;50344;51.142;16.892;2023-12-07T09:37:32;55.00;;;38.67;;
6539;SDS011;50344;51.142;16.892;2023-12-07T09:39:58;49.00;;;36.43;;
6539;SDS011;50344;51.142;16.892;2023-12-07T09:42:24;49.10;;;34.40;;
6539;SDS011;50344;51.142;16.892;2023-12-07T09:44:50;41.97;;;34.00;;
6539;SDS011;50344;51.142;16.892;2023-12-07T09:47:16;43.73;;;33.57;;
6539;SDS011;50344;51.142;16.892;2023-12-07T09:49:41;35.33;;;28.73;;
6539;SDS011;50344;51.142;16.892;2023-12-07T09:52:07;37.13;;;30.70;;
6539;SDS011;50344;51.142;16.892;2023-12-07T09:54:33;43.03;;;30.30;;
6539;SDS011;50344;51.142;16.892;2023-12-07T09:57:00;36.33;;;29.13;;
6539;SDS011;50344;51.142;16.892;2023-12-07T09:59:26;36.43;;;28.57;;
6539;SDS011;50344;51.142;16.892;2023-12-07T10:01:52;36.10;;;28.73;;
6539;SDS011;50344;51.142;16.892;2023-12-07T10:04:21;31.90;;;25.90;;
6539;SDS011;50344;51.142;16.892;2023-12-07T10:06:49;29.90;;;26.70;;
6539;SDS011;50344;51.142;16.892;2023-12-07T10:09:15;29.43;;;25.80;;
6539;SDS011;50344;51.142;16.892;2023-12-07T10:11:41;28.97;;;25.47;;
6539;SDS011;50344;51.142;16.892;2023-12-07T10:14:09;27.80;;;24.83;;
6539;SDS011;50344;51.142;16.892;2023-12-07T10:16:35;26.60;;;23.70;;
6539;SDS011;50344;51.142;16.892;2023-12-07T10:19:14;24.43;;;21.77;;
6539;SDS011;50344;51.142;16.892;2023-12-07T10:21:43;27.60;;;24.47;;
6539;SDS011;50344;51.142;16.892;2023-12-07T10:24:09;23.37;;;20.80;;
6539;SDS011;50344;51.142;16.892;2023-12-07T10:26:36;23.27;;;20.80;;
6539;SDS011;50344;51.142;16.892;2023-12-07T10:29:07;21.90;;;19.60;;
6539;SDS011;50344;51.142;16.892;2023-12-07T10:31:33;22.70;;;19.30;;
6539;SDS011;50344;51.142;16.892;2023-12-07T10:33:59;24.30;;;19.37;;
6539;SDS011;50344;51.142;16.892;2023-12-07T10:36:25;20.97;;;18.70;;
6539;SDS011;50344;51.142;16.892;2023-12-07T10:38:51;19.83;;;17.77;;
6539;SDS011;50344;51.142;16.892;2023-12-07T10:41:18;20.73;;;17.67;;
6539;SDS011;50344;51.142;16.892;2023-12-07T10:44:00;19.27;;;17.17;;
6539;SDS011;50344;51.142;16.892;2023-12-07T10:46:26;19.77;;;17.67;;
6539;SDS011;50344;51.142;16.892;2023-12-07T10:48:59;16.70;;;15.00;;
6539;SDS011;50344;51.142;16.892;2023-12-07T10:51:34;18.00;;;16.10;;
6539;SDS011;50344;51.142;16.892;2023-12-07T10:54:06;18.03;;;16.10;;
6539;SDS011;50344;51.142;16.892;2023-12-07T10:56:41;17.40;;;15.70;;
6539;SDS011;50344;51.142;16.892;2023-12-07T10:59:09;16.50;;;14.90;;
6539;SDS011;50344;51.142;16.892;2023-12-07T11:01:40;17.40;;;15.60;;
6539;SDS011;50344;51.142;16.892;2023-12-07T11:04:07;16.30;;;14.70;;
6539;SDS011;50344;51.142;16.892;2023-12-07T11:06:36;15.53;;;13.80;;
6539;SDS011;50344;51.142;16.892;2023-12-07T11:09:04;15.03;;;13.30;;
6539;SDS011;50344;51.142;16.892;2023-12-07T11:11:34;13.93;;;12.43;;
6539;SDS011;50344;51.142;16.892;2023-12-07T11:14:21;13.00;;;11.67;;
6539;SDS011;50344;51.142;16.892;2023-12-07T11:16:48;13.33;;;11.90;;
6539;SDS011;50344;51.142;16.892;2023-12-07T11:21:58;11.90;;;10.70;;
6539;SDS011;50344;51.142;16.892;2023-12-07T11:24:24;12.63;;;11.13;;
6539;SDS011;50344;51.142;16.892;2023-12-07T11:26:53;14.43;;;11.10;;
6539;SDS011;50344;51.142;16.892;2023-12-07T11:29:28;10.23;;;9.17;;
6539;SDS011;50344;51.142;16.892;2023-12-07T11:32:12;10.73;;;9.63;;
6539;SDS011;50344;51.142;16.892;2023-12-07T11:34:38;10.20;;;9.13;;
6539;SDS011;50344;51.142;16.892;2023-12-07T11:37:06;10.20;;;9.23;;
6539;SDS011;50344;51.142;16.892;2023-12-07T11:39:35;10.53;;;9.47;;
6539;SDS011;50344;51.142;16.892;2023-12-07T11:42:06;10.60;;;9.60;;
6539;SDS011;50344;51.142;16.892;2023-12-07T11:44:33;10.50;;;9.50;;
6539;SDS011;50344;51.142;16.892;2023-12-07T11:47:00;9.50;;;8.50;;
6539;SDS011;50344;51.142;16.892;2023-12-07T11:49:26;11.87;;;9.67;;
6539;SDS011;50344;51.142;16.892;2023-12-07T11:51:53;8.97;;;8.17;;
6539;SDS011;50344;51.142;16.892;2023-12-07T11:54:18;9.30;;;8.30;;
6539;SDS011;50344;51.142;16.892;2023-12-07T11:56:44;10.30;;;9.30;;
6539;SDS011;50344;51.142;16.892;2023-12-07T11:59:10;9.20;;;8.13;;
6539;SDS011;50344;51.142;16.892;2023-12-07T12:01:35;8.93;;;8.03;;
6539;SDS011;50344;51.142;16.892;2023-12-07T12:04:01;8.13;;;7.33;;
6539;SDS011;50344;51.142;16.892;2023-12-07T12:06:29;8.30;;;7.40;;
6539;SDS011;50344;51.142;16.892;2023-12-07T12:08:55;9.07;;;8.20;;
6539;SDS011;50344;51.142;16.892;2023-12-07T12:11:21;8.80;;;7.80;;
6539;SDS011;50344;51.142;16.892;2023-12-07T12:13:47;7.93;;;7.10;;
6539;SDS011;50344;51.142;16.892;2023-12-07T12:16:12;8.20;;;7.37;;
6539;SDS011;50344;51.142;16.892;2023-12-07T12:18:39;7.73;;;6.93;;
6539;SDS011;50344;51.142;16.892;2023-12-07T12:21:06;6.97;;;6.27;;
6539;SDS011;50344;51.142;16.892;2023-12-07T12:23:33;8.00;;;6.50;;
6539;SDS011;50344;51.142;16.892;2023-12-07T12:25:59;6.97;;;6.27;;
6539;SDS011;50344;51.142;16.892;2023-12-07T12:28:26;7.20;;;6.37;;
6539;SDS011;50344;51.142;16.892;2023-12-07T12:30:52;7.53;;;6.20;;
6539;SDS011;50344;51.142;16.892;2023-12-07T12:33:18;6.60;;;6.00;;
6539;SDS011;50344;51.142;16.892;2023-12-07T12:35:44;7.27;;;5.97;;
6539;SDS011;50344;51.142;16.892;2023-12-07T12:38:09;6.57;;;5.93;;
6539;SDS011;50344;51.142;16.892;2023-12-07T12:40:36;6.77;;;5.50;;
6539;SDS011;50344;51.142;16.892;2023-12-07T12:43:02;6.23;;;5.63;;
6539;SDS011;50344;51.142;16.892;2023-12-07T12:45:27;5.90;;;5.30;;
6539;SDS011;50344;51.142;16.892;2023-12-07T12:47:53;7.00;;;6.30;;
6539;SDS011;50344;51.142;16.892;2023-12-07T12:50:33;5.83;;;5.10;;
6539;SDS011;50344;51.142;16.892;2023-12-07T12:53:03;6.67;;;5.97;;
6539;SDS011;50344;51.142;16.892;2023-12-07T12:55:33;6.07;;;5.47;;
6539;SDS011;50344;51.142;16.892;2023-12-07T12:58:01;6.57;;;5.87;;
6539;SDS011;50344;51.142;16.892;2023-12-07T13:00:29;5.67;;;5.13;;
6539;SDS011;50344;51.142;16.892;2023-12-07T13:02:55;5.50;;;5.00;;
6539;SDS011;50344;51.142;16.892;2023-12-07T13:05:21;6.33;;;5.70;;
6539;SDS011;50344;51.142;16.892;2023-12-07T13:07:48;6.30;;;5.60;;
6539;SDS011;50344;51.142;16.892;2023-12-07T13:10:14;6.10;;;5.50;;
6539;SDS011;50344;51.142;16.892;2023-12-07T13:12:41;6.20;;;5.43;;
6539;SDS011;50344;51.142;16.892;2023-12-07T13:15:07;6.30;;;5.40;;
6539;SDS011;50344;51.142;16.892;2023-12-07T13:17:33;6.10;;;4.90;;
6539;SDS011;50344;51.142;16.892;2023-12-07T13:19:59;5.83;;;5.27;;
6539;SDS011;50344;51.142;16.892;2023-12-07T13:22:25;5.17;;;4.67;;
6539;SDS011;50344;51.142;16.892;2023-12-07T13:24:50;5.20;;;4.50;;
6539;SDS011;50344;51.142;16.892;2023-12-07T13:27:16;4.77;;;4.27;;
6539;SDS011;50344;51.142;16.892;2023-12-07T13:29:42;4.77;;;4.17;;
6539;SDS011;50344;51.142;16.892;2023-12-07T13:32:08;4.67;;;4.10;;
6539;SDS011;50344;51.142;16.892;2023-12-07T13:34:36;5.43;;;4.63;;
6539;SDS011;50344;51.142;16.892;2023-12-07T13:37:03;4.20;;;3.70;;
6539;SDS011;50344;51.142;16.892;2023-12-07T13:39:30;5.63;;;5.10;;
6539;SDS011;50344;51.142;16.892;2023-12-07T13:41:56;5.63;;;5.03;;
6539;SDS011;50344;51.142;16.892;2023-12-07T13:44:22;4.63;;;4.23;;
6539;SDS011;50344;51.142;16.892;2023-12-07T13:46:49;5.13;;;4.63;;
6539;SDS011;50344;51.142;16.892;2023-12-07T13:49:15;7.13;;;5.73;;
6539;SDS011;50344;51.142;16.892;2023-12-07T13:51:40;6.53;;;5.40;;
6539;SDS011;50344;51.142;16.892;2023-12-07T13:54:07;5.90;;;5.30;;
6539;SDS011;50344;51.142;16.892;2023-12-07T13:56:33;6.60;;;5.53;;
6539;SDS011;50344;51.142;16.892;2023-12-07T13:59:00;8.07;;;6.17;;
6539;SDS011;50344;51.142;16.892;2023-12-07T14:01:26;6.47;;;5.70;;
6539;SDS011;50344;51.142;16.892;2023-12-07T14:03:51;6.97;;;6.27;;
6539;SDS011;50344;51.142;16.892;2023-12-07T14:06:23;8.27;;;7.47;;
6539;SDS011;50344;51.142;16.892;2023-12-07T14:08:49;8.33;;;7.10;;
6539;SDS011;50344;51.142;16.892;2023-12-07T14:11:16;7.20;;;6.50;;
6539;SDS011;50344;51.142;16.892;2023-12-07T14:13:42;7.97;;;7.17;;
6539;SDS011;50344;51.142;16.892;2023-12-07T14:16:08;7.47;;;6.67;;
6539;SDS011;50344;51.142;16.892;2023-12-07T14:18:34;7.83;;;7.03;;
6539;SDS011;50344;51.142;16.892;2023-12-07T14:20:59;8.10;;;6.60;;
6539;SDS011;50344;51.142;16.892;2023-12-07T14:23:25;7.10;;;6.40;;
6539;SDS011;50344;51.142;16.892;2023-12-07T14:25:51;8.00;;;7.20;;
6539;SDS011;50344;51.142;16.892;2023-12-07T14:28:17;7.40;;;6.60;;